createdAt,value
2022-09-16T00:01:12.719Z,14.05
2022-09-16T00:03:41.601Z,14.13
2022-09-16T00:06:19.159Z,14.08
2022-09-16T00:08:47.435Z,14.13
2022-09-16T00:11:15.972Z,14.00
2022-09-16T00:13:43.987Z,14.11
2022-09-16T00:16:15.375Z,14.05
2022-09-16T00:18:43.384Z,14.14
2022-09-16T00:21:12.317Z,14.06
2022-09-16T00:23:41.861Z,14.11
2022-09-16T00:26:10.062Z,14.30
2022-09-16T00:28:38.164Z,14.06
2022-09-16T00:31:06.578Z,14.08
2022-09-16T00:33:34.748Z,14.06
2022-09-16T00:36:07.771Z,14.03
2022-09-16T00:38:36.012Z,14.05
2022-09-16T00:41:06.312Z,14.08
2022-09-16T00:43:53.653Z,14.17
2022-09-16T00:46:27.951Z,14.02
2022-09-16T00:48:56.186Z,14.12
2022-09-16T00:51:25.449Z,14.00
2022-09-16T00:53:57.464Z,14.14
2022-09-16T00:56:31.144Z,14.07
2022-09-16T00:59:05.736Z,13.88
2022-09-16T01:01:34.364Z,13.86
2022-09-16T01:04:06.824Z,13.90
2022-09-16T01:06:39.560Z,13.81
2022-09-16T01:09:08.093Z,13.84
2022-09-16T01:11:37.512Z,13.91
2022-09-16T01:14:24.329Z,13.86
2022-09-16T01:16:59.566Z,13.93
2022-09-16T01:19:49.718Z,13.89
2022-09-16T01:22:30.226Z,13.89
2022-09-16T01:25:08.950Z,13.85
2022-09-16T01:27:53.396Z,13.76
2022-09-16T01:30:53.520Z,13.76
2022-09-16T01:33:31.637Z,13.61
2022-09-16T01:36:17.242Z,13.71
2022-09-16T01:38:58.074Z,13.70
2022-09-16T01:41:32.778Z,13.77
2022-09-16T01:44:05.518Z,13.73
2022-09-16T01:46:43.321Z,13.83
2022-09-16T01:49:21.468Z,13.76
2022-09-16T01:51:55.285Z,13.77
2022-09-16T01:54:27.374Z,13.72
2022-09-16T01:57:01.677Z,13.79
2022-09-16T01:59:38.552Z,13.77
2022-09-16T02:02:15.673Z,13.72
2022-09-16T02:04:48.414Z,13.73
2022-09-16T02:07:20.702Z,13.82
2022-09-16T02:09:53.804Z,13.69
2022-09-16T02:12:29.162Z,13.80
2022-09-16T02:15:03.856Z,13.72
2022-09-16T02:17:37.902Z,13.64
2022-09-16T02:20:11.202Z,13.75
2022-09-16T02:22:44.505Z,13.70
2022-09-16T02:25:16.517Z,13.65
2022-09-16T02:27:47.392Z,13.82
2022-09-16T02:30:17.897Z,13.61
2022-09-16T02:32:49.750Z,13.71
2022-09-16T02:35:20.177Z,13.61
2022-09-16T02:37:52.287Z,13.67
2022-09-16T02:40:25.597Z,13.61
2022-09-16T02:42:54.253Z,13.59
2022-09-16T02:45:27.038Z,13.45
2022-09-16T02:48:03.266Z,13.69
2022-09-16T02:50:39.764Z,13.73
2022-09-16T02:53:20.234Z,13.62
2022-09-16T02:55:54.655Z,13.59
2022-09-16T02:58:22.981Z,13.63
2022-09-16T03:00:55.583Z,13.62
2022-09-16T03:03:24.945Z,13.61
2022-09-16T03:06:15.492Z,13.56
2022-09-16T03:08:45.431Z,13.57
2022-09-16T03:11:33.720Z,13.59
2022-09-16T03:14:15.959Z,13.53
2022-09-16T03:16:55.434Z,13.47
2022-09-16T03:19:30.518Z,13.61
2022-09-16T03:22:05.922Z,13.56
2022-09-16T03:24:44.292Z,13.53
2022-09-16T03:27:17.314Z,13.55
2022-09-16T03:29:50.620Z,13.50
2022-09-16T03:32:22.334Z,13.56
2022-09-16T03:34:56.277Z,13.55
2022-09-16T03:37:26.167Z,13.52
2022-09-16T03:39:58.410Z,13.55
2022-09-16T03:42:26.933Z,13.57
2022-09-16T03:44:54.908Z,13.47
2022-09-16T03:47:22.821Z,13.51
2022-09-16T03:49:52.182Z,13.51
2022-09-16T03:52:20.060Z,13.57
2022-09-16T03:54:47.958Z,13.54
2022-09-16T03:57:15.882Z,13.59
2022-09-16T03:59:43.808Z,13.50
2022-09-16T04:02:11.760Z,13.71
2022-09-16T04:04:39.699Z,13.59
2022-09-16T04:07:09.031Z,13.51
2022-09-16T04:09:38.136Z,13.48
2022-09-16T04:12:07.760Z,13.56
2022-09-16T04:14:36.553Z,13.51
2022-09-16T04:17:05.151Z,13.50
2022-09-16T04:19:33.122Z,13.54
2022-09-16T04:22:01.080Z,13.49
2022-09-16T04:24:30.925Z,13.54
2022-09-16T04:26:58.867Z,13.63
2022-09-16T04:29:27.807Z,13.44
2022-09-16T04:31:56.080Z,13.49
2022-09-16T04:34:24.122Z,13.54
2022-09-16T04:36:52.094Z,13.43
2022-09-16T04:39:20.283Z,13.43
2022-09-16T04:41:49.685Z,13.54
2022-09-16T04:44:17.606Z,13.50
2022-09-16T04:46:45.516Z,13.48
2022-09-16T04:49:13.793Z,13.27
2022-09-16T04:51:41.722Z,13.31
2022-09-16T04:54:09.667Z,13.33
2022-09-16T04:56:37.585Z,13.26
2022-09-16T04:59:07.273Z,13.28
2022-09-16T05:01:38.219Z,13.38
2022-09-16T05:04:08.447Z,13.33
2022-09-16T05:06:38.486Z,13.38
2022-09-16T05:09:07.006Z,13.31
2022-09-16T05:11:38.850Z,13.30
2022-09-16T05:14:11.365Z,13.39
2022-09-16T05:16:39.687Z,13.35
2022-09-16T05:19:07.967Z,13.48
2022-09-16T05:21:37.885Z,13.35
2022-09-16T05:24:08.930Z,13.25
2022-09-16T05:26:38.940Z,13.25
2022-09-16T05:29:09.877Z,13.24
2022-09-16T05:31:40.040Z,13.12
2022-09-16T05:34:12.710Z,13.24
2022-09-16T05:36:43.314Z,13.31
2022-09-16T05:39:28.495Z,13.34
2022-09-16T05:41:58.697Z,13.27
2022-09-16T05:44:29.931Z,13.20
2022-09-16T05:46:58.700Z,13.19
2022-09-16T05:49:29.014Z,13.38
2022-09-16T05:51:57.005Z,13.22
2022-09-16T05:54:25.422Z,13.20
2022-09-16T05:56:54.050Z,13.28
2022-09-16T05:59:30.111Z,13.20
2022-09-16T06:01:59.895Z,13.22
2022-09-16T06:04:28.180Z,13.24
2022-09-16T06:06:56.162Z,13.27
2022-09-16T06:09:26.040Z,13.19
2022-09-16T06:12:00.947Z,13.19
2022-09-16T06:14:30.430Z,13.23
2022-09-16T06:17:00.127Z,13.24
2022-09-16T06:19:28.177Z,13.08
2022-09-16T06:21:56.197Z,13.13
2022-09-16T06:24:24.442Z,13.11
2022-09-16T06:26:53.112Z,13.18
2022-09-16T06:29:21.204Z,13.18
2022-09-16T06:31:55.438Z,13.19
2022-09-16T06:34:24.981Z,13.19
2022-09-16T06:36:52.879Z,13.16
2022-09-16T06:39:22.524Z,13.08
2022-09-16T06:41:50.525Z,13.21
2022-09-16T06:44:18.592Z,13.23
2022-09-16T06:46:46.796Z,13.21
2022-09-16T06:49:14.871Z,13.27
2022-09-16T06:51:44.237Z,13.34
2022-09-16T06:54:12.993Z,13.36
2022-09-16T06:56:41.565Z,13.32
2022-09-16T06:59:19.440Z,13.38
2022-09-16T07:01:47.685Z,13.38
2022-09-16T07:04:16.494Z,13.43
2022-09-16T07:07:08.687Z,13.50
2022-09-16T07:09:37.125Z,13.40
2022-09-16T07:12:05.595Z,13.60
2022-09-16T07:14:33.890Z,13.65
2022-09-16T07:17:13.372Z,13.63
2022-09-16T07:19:44.958Z,13.60
2022-09-16T07:22:25.304Z,13.62
2022-09-16T07:25:07.296Z,13.61
2022-09-16T07:27:38.705Z,13.59
2022-09-16T07:30:10.039Z,13.64
2022-09-16T07:32:42.659Z,13.67
2022-09-16T07:35:10.886Z,13.65
2022-09-16T07:37:42.795Z,13.67
2022-09-16T07:40:13.587Z,13.81
2022-09-16T07:42:46.420Z,13.72
2022-09-16T07:45:28.216Z,13.67
2022-09-16T07:47:59.609Z,13.73
2022-09-16T07:50:57.043Z,13.66
2022-09-16T09:32:49.486Z,15.24
2022-09-16T09:35:32.280Z,15.32
2022-09-16T09:38:30.543Z,15.32
2022-09-16T09:41:04.344Z,15.36
2022-09-16T09:43:36.789Z,15.58
2022-09-16T09:46:09.798Z,15.36
2022-09-16T09:48:42.108Z,15.25
2022-09-16T09:51:28.833Z,15.24
2022-09-16T09:54:02.271Z,15.22
2022-09-16T09:56:35.418Z,15.38
2022-09-16T09:59:17.470Z,15.47
2022-09-16T10:01:45.916Z,15.61
2022-09-16T10:04:15.962Z,15.60
2022-09-16T10:06:46.996Z,15.74
2022-09-16T10:09:16.873Z,15.59
2022-09-16T10:11:51.349Z,15.44
2022-09-16T10:14:27.823Z,15.48
2022-09-16T10:16:56.374Z,15.64
2022-09-16T10:19:26.436Z,15.62
2022-09-16T10:21:57.861Z,15.67
2022-09-16T10:24:32.727Z,15.47
2022-09-16T10:27:02.471Z,15.57
2022-09-16T10:29:31.023Z,15.50
2022-09-16T10:32:07.295Z,15.28
2022-09-16T10:34:40.154Z,15.30
2022-09-16T10:37:19.043Z,15.42
2022-09-16T10:39:53.377Z,15.44
2022-09-16T10:42:23.608Z,15.43
2022-09-16T10:44:53.150Z,15.52
2022-09-16T10:47:24.666Z,15.69
2022-09-16T10:49:56.390Z,15.62
2022-09-16T10:52:28.301Z,15.53
2022-09-16T10:54:56.968Z,15.62
2022-09-16T10:57:29.528Z,15.51
2022-09-16T11:00:08.723Z,15.76
2022-09-16T11:03:11.787Z,15.64
2022-09-16T11:05:51.769Z,15.87
2022-09-16T11:08:35.142Z,15.96
2022-09-16T11:11:11.835Z,15.96
2022-09-16T11:13:49.633Z,15.65
2022-09-16T11:16:29.897Z,15.62
2022-09-16T11:19:06.672Z,15.81
2022-09-16T11:21:50.212Z,14.99
2022-09-16T11:24:45.780Z,14.42
2022-09-16T11:27:22.675Z,13.81
2022-09-16T11:30:02.830Z,13.87
2022-09-16T11:32:42.408Z,13.65
2022-09-16T11:35:31.061Z,13.34
2022-09-16T11:38:07.072Z,13.43
2022-09-16T11:40:48.077Z,13.59
2022-09-16T11:43:50.983Z,13.48
2022-09-16T11:46:24.494Z,13.31
2022-09-16T11:49:08.510Z,13.32
2022-09-16T11:51:51.728Z,13.41
2022-09-16T11:54:38.657Z,13.51
2022-09-16T11:57:14.593Z,13.48
2022-09-16T11:59:50.966Z,13.70
2022-09-16T12:02:26.267Z,13.73
2022-09-16T12:05:00.034Z,14.01
2022-09-16T12:07:34.027Z,14.31
2022-09-16T12:10:08.032Z,14.40
2022-09-16T12:12:41.080Z,14.63
2022-09-16T12:15:19.088Z,14.65
2022-09-16T12:17:56.015Z,15.21
2022-09-16T12:20:30.718Z,15.12
2022-09-16T12:23:06.477Z,15.38
2022-09-16T12:25:45.482Z,15.55
2022-09-16T12:28:21.533Z,15.72
2022-09-16T12:30:58.692Z,15.81
2022-09-16T12:33:33.166Z,15.65
2022-09-16T12:36:05.370Z,15.38
2022-09-16T12:38:33.856Z,15.86
2022-09-16T12:41:19.735Z,15.54
2022-09-16T12:44:33.584Z,16.03
2022-09-16T12:47:38.018Z,16.11
2022-09-16T12:50:41.212Z,16.38
2022-09-16T12:53:53.103Z,16.02
2022-09-16T12:56:35.320Z,15.93
2022-09-16T12:59:25.014Z,15.80
2022-09-16T13:01:59.949Z,15.70
2022-09-16T13:04:34.134Z,16.17
2022-09-16T13:07:02.491Z,16.04
2022-09-16T13:09:36.302Z,16.38
2022-09-16T13:12:35.298Z,16.22
2022-09-16T13:14:59.699Z,15.85
2022-09-16T13:17:31.305Z,15.82
2022-09-16T13:20:07.848Z,15.77
2022-09-16T13:22:45.661Z,15.64
2022-09-16T13:25:23.603Z,15.50
2022-09-16T13:27:59.447Z,15.34
2022-09-16T13:30:37.189Z,15.23
2022-09-16T13:33:28.008Z,15.22
2022-09-16T13:36:30.732Z,15.15
2022-09-16T13:39:01.950Z,15.26
2022-09-16T13:41:34.017Z,15.00
2022-09-16T13:44:03.342Z,14.79
2022-09-16T13:46:35.907Z,15.04
2022-09-16T13:49:25.012Z,14.60
2022-09-16T13:51:53.906Z,14.53
2022-09-16T13:54:28.000Z,14.56
2022-09-16T13:57:21.607Z,14.69
2022-09-16T14:00:12.832Z,14.79
2022-09-16T14:02:56.989Z,15.04
2022-09-16T14:05:37.938Z,14.92
2022-09-16T14:08:15.489Z,14.88
2022-09-16T14:11:00.628Z,14.96
2022-09-16T14:13:41.333Z,14.86
2022-09-16T14:16:16.917Z,14.78
2022-09-16T14:18:55.537Z,15.03
2022-09-16T14:21:25.626Z,15.08
2022-09-16T14:26:23.999Z,15.17
2022-09-16T14:29:03.178Z,15.26
2022-09-16T14:31:34.538Z,15.14
2022-09-16T14:34:09.663Z,15.15
2022-09-16T14:36:40.471Z,15.15
2022-09-16T14:39:13.967Z,15.44
2022-09-16T14:41:45.763Z,15.37
2022-09-16T14:44:23.082Z,15.35
2022-09-16T14:47:04.693Z,15.42
2022-09-16T14:49:39.484Z,15.53
2022-09-16T14:52:19.670Z,15.41
2022-09-16T14:54:48.499Z,15.42
2022-09-16T14:57:22.727Z,15.51
2022-09-16T14:59:53.137Z,15.47
2022-09-16T15:02:25.616Z,15.46
2022-09-16T15:04:58.894Z,15.46
2022-09-16T15:07:34.229Z,15.68
2022-09-16T15:10:07.903Z,15.42
2022-09-16T15:12:40.513Z,15.39
2022-09-16T15:15:18.162Z,15.62
2022-09-16T15:17:56.469Z,15.87
2022-09-16T15:20:32.374Z,15.61
2022-09-16T15:23:01.536Z,15.36
2022-09-16T15:25:34.266Z,15.45
2022-09-16T15:28:07.538Z,15.45
2022-09-16T15:30:36.235Z,15.47
2022-09-16T15:33:04.355Z,15.66
2022-09-16T15:35:35.598Z,15.70
2022-09-16T15:38:13.046Z,15.43
2022-09-16T15:40:41.188Z,15.36
2022-09-16T15:43:18.406Z,15.27
2022-09-16T15:45:58.412Z,15.17
2022-09-16T15:48:30.825Z,15.08
2022-09-16T15:51:06.356Z,15.22
2022-09-16T15:53:44.314Z,15.27
2022-09-16T15:56:24.308Z,15.22
2022-09-16T15:58:55.981Z,15.03
2022-09-16T16:01:40.164Z,15.21
2022-09-16T16:04:10.471Z,15.02
2022-09-16T16:06:54.116Z,14.87
2022-09-16T16:09:41.389Z,15.05
2022-09-16T16:12:12.044Z,15.03
2022-09-16T16:14:41.562Z,14.90
2022-09-16T16:17:13.865Z,14.87
2022-09-16T16:19:43.894Z,14.93
2022-09-16T16:22:13.578Z,14.77
2022-09-16T16:24:43.352Z,14.94
2022-09-16T16:27:11.704Z,15.13
2022-09-16T16:29:39.712Z,15.05
2022-09-16T16:32:10.450Z,14.96
2022-09-16T16:34:40.064Z,14.89
2022-09-16T16:37:08.674Z,14.87
2022-09-16T16:39:38.389Z,14.86
2022-09-16T16:42:07.031Z,14.98
2022-09-16T16:44:39.543Z,14.92
2022-09-16T16:47:08.538Z,14.95
2022-09-16T16:49:36.932Z,15.00
2022-09-16T16:52:06.363Z,15.05
2022-09-16T16:54:34.762Z,15.10
2022-09-16T16:57:04.777Z,14.97
2022-09-16T16:59:32.893Z,14.94
2022-09-16T17:02:01.031Z,14.82
2022-09-16T17:04:29.134Z,14.86
2022-09-16T17:07:21.435Z,14.75
2022-09-16T17:09:46.141Z,14.81
2022-09-16T17:12:15.747Z,14.81
2022-09-16T17:14:44.035Z,14.60
2022-09-16T17:17:12.215Z,14.59
2022-09-16T17:19:40.424Z,14.54
2022-09-16T17:22:08.602Z,14.51
2022-09-16T17:24:36.738Z,14.39
2022-09-16T17:27:05.335Z,14.52
2022-09-16T17:29:34.951Z,14.42
2022-09-16T17:32:03.553Z,14.52
2022-09-16T17:34:32.636Z,14.58
2022-09-16T17:37:00.606Z,14.36
2022-09-16T17:39:28.633Z,14.28
2022-09-16T17:41:57.472Z,14.47
2022-09-16T17:44:25.770Z,14.39
2022-09-16T17:46:55.285Z,14.32
2022-09-16T17:49:24.737Z,14.16
2022-09-16T17:51:54.296Z,14.23
2022-09-16T17:54:22.668Z,14.15
2022-09-16T17:56:50.825Z,14.22
2022-09-16T17:59:19.885Z,14.11
2022-09-16T18:01:49.264Z,14.11
2022-09-16T18:04:19.139Z,14.12
2022-09-16T18:06:48.146Z,14.18
2022-09-16T18:09:17.467Z,14.16
2022-09-16T18:11:46.342Z,14.11
2022-09-16T18:14:15.938Z,14.01
2022-09-16T18:16:47.794Z,13.93
2022-09-16T18:19:15.864Z,13.98
2022-09-16T18:21:45.128Z,13.98
2022-09-16T18:24:13.703Z,13.79
2022-09-16T18:26:42.258Z,13.87
2022-09-16T18:29:12.285Z,13.68
2022-09-16T18:31:41.962Z,13.63
2022-09-16T18:34:10.439Z,13.66
2022-09-16T18:36:39.298Z,13.74
2022-09-16T18:39:13.120Z,13.85
2022-09-16T18:41:42.459Z,13.68
2022-09-16T18:44:14.424Z,13.59
2022-09-16T18:46:42.933Z,13.56
2022-09-16T18:49:13.656Z,13.60
2022-09-16T18:51:48.543Z,13.57
2022-09-16T18:54:24.820Z,13.53
2022-09-16T18:56:55.577Z,13.55
2022-09-16T18:59:26.862Z,13.49
2022-09-16T19:01:56.943Z,13.47
2022-09-16T19:04:27.655Z,13.41
2022-09-16T19:06:59.115Z,13.37
2022-09-16T19:09:29.089Z,13.19
2022-09-16T19:11:57.070Z,13.38
2022-09-16T19:14:27.415Z,13.28
2022-09-16T19:16:56.288Z,13.26
2022-09-16T19:19:24.268Z,13.24
2022-09-16T19:21:52.429Z,13.18
2022-09-16T19:24:22.239Z,13.20
2022-09-16T19:26:55.524Z,13.32
2022-09-16T19:29:24.935Z,13.33
2022-09-16T19:31:54.036Z,13.20
2022-09-16T19:34:23.129Z,13.19
2022-09-16T19:36:51.750Z,13.14
2022-09-16T19:39:21.444Z,13.07
2022-09-16T19:41:50.999Z,13.24
2022-09-16T19:44:22.649Z,13.10
2022-09-16T19:46:50.824Z,13.08
2022-09-16T19:49:21.200Z,13.05
2022-09-16T19:51:50.272Z,13.20
2022-09-16T19:54:19.476Z,12.94
2022-09-16T19:56:50.618Z,12.83
2022-09-16T19:59:22.092Z,12.86
2022-09-16T20:01:50.523Z,12.80
2022-09-16T20:04:20.909Z,12.76
2022-09-16T20:06:49.813Z,12.76
2022-09-16T20:09:18.181Z,12.83
2022-09-16T20:11:48.186Z,12.77
2022-09-16T20:14:18.920Z,12.92
2022-09-16T20:16:49.881Z,12.87
2022-09-16T20:19:20.279Z,12.73
2022-09-16T20:21:48.601Z,12.55
2022-09-16T20:24:18.415Z,12.74
2022-09-16T20:26:46.749Z,12.76
2022-09-16T20:29:15.071Z,12.74
2022-09-16T20:31:43.102Z,12.65
2022-09-16T20:34:13.785Z,12.56
2022-09-16T20:36:42.200Z,12.50
2022-09-16T20:39:11.276Z,12.63
2022-09-16T20:41:41.012Z,12.80
2022-09-16T20:44:12.989Z,12.56
2022-09-16T20:46:41.264Z,12.52
2022-09-16T20:49:11.191Z,12.53
2022-09-16T20:51:40.896Z,12.30
2022-09-16T20:54:11.212Z,12.51
2022-09-16T20:56:40.917Z,12.43
2022-09-16T20:59:10.271Z,12.41
2022-09-16T21:01:39.870Z,12.28
2022-09-16T21:04:10.814Z,12.50
2022-09-16T21:06:40.660Z,12.51
2022-09-16T21:09:10.312Z,12.43
2022-09-16T21:11:40.902Z,12.44
2022-09-16T21:14:09.102Z,12.47
2022-09-16T21:16:38.924Z,12.55
2022-09-16T21:19:10.323Z,12.48
2022-09-16T21:21:42.151Z,12.34
2022-09-16T21:24:10.445Z,12.45
2022-09-16T21:26:41.455Z,12.46
2022-09-16T21:29:11.625Z,12.36
2022-09-16T21:31:41.702Z,12.43
2022-09-16T21:34:13.696Z,12.37
2022-09-16T21:36:44.885Z,12.38
2022-09-16T21:39:14.094Z,12.32
2022-09-16T21:41:42.617Z,12.37
2022-09-16T21:44:10.805Z,12.37
2022-09-16T21:46:41.682Z,12.26
2022-09-16T21:49:19.245Z,12.26
2022-09-16T21:51:49.245Z,12.27
2022-09-16T21:54:24.110Z,12.22
2022-09-16T21:56:52.931Z,12.32
2022-09-16T21:59:21.171Z,12.37
2022-09-16T22:01:50.262Z,12.32
2022-09-16T22:04:22.704Z,12.17
2022-09-16T22:06:55.155Z,12.26
2022-09-16T22:09:24.009Z,12.26
2022-09-16T22:11:52.161Z,12.38
2022-09-16T22:14:20.568Z,12.21
2022-09-16T22:16:48.741Z,12.13
2022-09-16T22:19:18.954Z,12.11
2022-09-16T22:21:48.829Z,11.96
2022-09-16T22:24:20.549Z,11.94
2022-09-16T22:26:49.322Z,12.02
2022-09-16T22:29:17.473Z,11.95
2022-09-16T22:31:45.685Z,11.90
2022-09-16T22:34:13.848Z,12.00
2022-09-16T22:36:42.566Z,11.97
2022-09-16T22:39:13.485Z,11.96
2022-09-16T22:41:43.618Z,11.73
2022-09-16T22:44:11.637Z,11.83
2022-09-16T22:46:42.657Z,11.78
2022-09-16T22:49:11.616Z,11.83
2022-09-16T22:51:39.745Z,11.83
2022-09-16T22:54:08.734Z,11.70
2022-09-16T22:56:37.081Z,11.93
2022-09-16T22:59:08.478Z,11.67
2022-09-16T23:01:39.839Z,11.76
2022-09-16T23:04:09.771Z,11.89
2022-09-16T23:06:39.025Z,11.79
2022-09-16T23:09:09.232Z,11.66
2022-09-16T23:11:37.576Z,11.72
2022-09-16T23:14:08.695Z,11.73
2022-09-16T23:16:38.488Z,11.85
2022-09-16T23:19:08.683Z,11.96
2022-09-16T23:21:37.767Z,11.69
2022-09-16T23:24:08.028Z,11.68
2022-09-16T23:26:39.164Z,11.63
2022-09-16T23:29:11.252Z,11.49
2022-09-16T23:31:41.367Z,11.71
2022-09-16T23:34:12.515Z,11.76
2022-09-16T23:36:41.532Z,11.77
2022-09-16T23:39:10.247Z,11.70
2022-09-16T23:41:38.446Z,11.54
2022-09-16T23:44:08.136Z,11.64
2022-09-16T23:46:36.355Z,11.48
2022-09-16T23:49:04.753Z,11.66
2022-09-16T23:51:32.995Z,11.65
2022-09-16T23:54:01.376Z,11.67
2022-09-16T23:56:29.669Z,11.75
2022-09-16T23:59:00.515Z,11.69
